Time;durP1;ratioP1;P1;durP2;ratioP2;P2;SDS_P1;SDS_P2;PMS_P1;PMS_P2;Temp;Humidity;BMP_temperature;BMP_pressure;BME280_temperature;BME280_humidity;BME280_pressure;Samples;Min_cycle;Max_cycle;Signal;HPM_P1;HPM_P2
2021/01/22 00:02:10;;;;;;;3.60;1.65;;;;;;;10.24;65.07;96509.63;5097642;28;20044;-66
2021/01/22 00:04:38;;;;;;;2.33;1.40;;;;;;;10.26;65.19;96510.22;5098622;28;20055;-66
2021/01/22 00:07:05;;;;;;;3.10;1.38;;;;;;;10.27;65.38;96511.03;5097693;28;20044;-66
2021/01/22 00:09:32;;;;;;;6.40;3.42;;;;;;;10.30;65.45;96513.19;5099658;28;20051;-66
2021/01/22 00:11:58;;;;;;;5.68;2.60;;;;;;;10.31;65.22;96499.72;5100695;28;20502;-66
2021/01/22 00:14:26;;;;;;;2.90;1.52;;;;;;;10.34;65.13;96487.88;5098928;28;20055;-66
2021/01/22 00:16:53;;;;;;;4.18;1.83;;;;;;;10.31;64.85;96481.22;5098320;28;20498;-66
2021/01/22 00:19:19;;;;;;;2.88;1.48;;;;;;;10.29;65.24;96483.34;5097138;28;20460;-66
2021/01/22 00:21:46;;;;;;;2.17;1.00;;;;;;;10.29;65.58;96482.53;5098303;28;20039;-66
2021/01/22 00:24:13;;;;;;;3.60;1.75;;;;;;;10.22;65.86;96482.69;5098228;28;20451;-66
2021/01/22 00:26:40;;;;;;;3.55;1.30;;;;;;;10.22;66.02;96481.88;5094412;28;20044;-66
2021/01/22 00:29:06;;;;;;;2.47;1.10;;;;;;;10.21;65.72;96470.53;5094947;28;20125;-64
2021/01/22 00:31:34;;;;;;;2.83;1.33;;;;;;;10.16;66.41;96468.63;5094852;28;20040;-64
2021/01/22 00:34:01;;;;;;;4.30;1.52;;;;;;;10.08;66.97;96462.97;5094817;28;20118;-66
2021/01/22 00:36:28;;;;;;;2.40;1.40;;;;;;;10.04;67.22;96443.38;5094482;28;20044;-65
2021/01/22 00:38:55;;;;;;;1.88;1.45;;;;;;;9.99;67.39;96457.31;5094868;28;20044;-64
2021/01/22 00:41:21;;;;;;;2.85;1.27;;;;;;;10.04;67.39;96464.50;5094721;28;20048;-64
2021/01/22 00:43:48;;;;;;;2.08;1.13;;;;;;;10.02;67.44;96464.75;5095045;28;20048;-64
2021/01/22 00:46:15;;;;;;;1.58;0.93;;;;;;;9.93;67.20;96461.75;5094809;28;20046;-64
2021/01/22 00:48:42;;;;;;;2.28;1.10;;;;;;;9.90;67.50;96459.59;5095036;28;20051;-64
2021/01/22 00:51:09;;;;;;;2.75;1.30;;;;;;;9.90;67.69;96470.16;5094455;28;20040;-65
2021/01/22 00:53:36;;;;;;;2.08;1.00;;;;;;;9.88;67.96;96474.09;5094581;28;20489;-64
2021/01/22 00:56:02;;;;;;;2.60;1.20;;;;;;;9.86;67.85;96465.63;5093121;28;20056;-65
2021/01/22 00:58:33;;;;;;;1.85;0.90;;;;;;;9.83;68.04;96469.53;5094615;28;20128;-65
2021/01/22 01:01:18;;;;;;;2.78;1.33;;;;;;;9.80;68.37;96463.97;5093196;28;20101;-65
2021/01/22 01:03:46;;;;;;;4.68;1.40;;;;;;;9.77;67.86;96472.38;5094829;28;20044;-65
2021/01/22 01:06:13;;;;;;;1.50;1.05;;;;;;;9.78;67.76;96456.28;5092744;28;20051;-65
2021/01/22 01:08:47;;;;;;;2.58;1.15;;;;;;;9.79;67.51;96452.59;5092853;28;20128;-65
2021/01/22 01:11:33;;;;;;;2.83;1.20;;;;;;;9.82;67.78;96456.59;5094232;28;20146;-65
2021/01/22 01:14:28;;;;;;;4.68;1.50;;;;;;;9.84;67.37;96449.25;5092521;28;20044;-65
2021/01/22 01:16:57;;;;;;;1.27;1.08;;;;;;;9.81;67.30;96458.44;5092572;28;20420;-65
2021/01/22 01:19:25;;;;;;;2.08;1.10;;;;;;;9.82;67.50;96457.38;5093946;28;20078;-65
2021/01/22 01:21:51;;;;;;;1.98;1.30;;;;;;;9.86;67.13;96461.13;5093905;28;20166;-64
2021/01/22 01:24:18;;;;;;;1.73;1.10;;;;;;;9.83;67.36;96458.19;5092295;28;20059;-65
2021/01/22 01:26:45;;;;;;;2.63;1.10;;;;;;;9.81;67.61;96447.88;5093632;28;20040;-65
2021/01/22 01:29:11;;;;;;;2.28;1.00;;;;;;;9.81;67.69;96444.44;5093629;28;20536;-65
2021/01/22 01:31:38;;;;;;;3.83;1.50;;;;;;;9.82;67.62;96451.31;5093724;28;20048;-64
2021/01/22 01:34:05;;;;;;;1.13;1.02;;;;;;;9.81;67.50;96442.59;5093613;28;20126;-64
2021/01/22 01:36:32;;;;;;;3.15;1.35;;;;;;;9.77;67.79;96441.50;5093082;28;20055;-64
2021/01/22 01:38:59;;;;;;;2.08;1.27;;;;;;;9.74;67.85;96449.91;5093511;28;20387;-64
2021/01/22 01:41:26;;;;;;;2.72;1.27;;;;;;;9.75;67.85;96440.94;5093626;28;20094;-64
2021/01/22 01:43:52;;;;;;;1.85;1.35;;;;;;;9.75;67.99;96440.94;5093578;28;20047;-64
2021/01/22 01:46:20;;;;;;;2.22;1.27;;;;;;;9.77;68.08;96440.69;5093281;28;20059;-64
2021/01/22 01:48:47;;;;;;;2.33;1.30;;;;;;;9.73;67.95;96442.25;5093388;28;20040;-64
2021/01/22 01:51:14;;;;;;;3.70;1.55;;;;;;;9.75;67.99;96426.94;5093161;28;20044;-64
2021/01/22 01:53:42;;;;;;;6.22;1.52;;;;;;;9.78;67.54;96431.75;5093385;28;20051;-65
2021/01/22 01:56:09;;;;;;;5.93;1.73;;;;;;;9.80;66.94;96430.47;5092914;28;20054;-66
2021/01/22 01:58:35;;;;;;;9.07;2.15;;;;;;;9.79;67.28;96426.22;5093243;28;20036;-65
2021/01/22 02:01:03;;;;;;;4.45;1.40;;;;;;;9.82;66.79;96423.09;5093110;28;20149;-66
2021/01/22 02:03:29;;;;;;;4.15;1.52;;;;;;;9.83;66.96;96424.66;5093159;28;20486;-66
2021/01/22 02:05:56;;;;;;;4.18;1.90;;;;;;;9.85;66.48;96430.50;5092727;28;20487;-66
2021/01/22 02:08:24;;;;;;;3.78;1.65;;;;;;;9.84;66.28;96407.81;5092876;28;20490;-66
2021/01/22 02:10:53;;;;;;;5.88;1.83;;;;;;;9.87;66.39;96409.94;5092957;28;20047;-66
2021/01/22 02:13:21;;;;;;;4.40;1.50;;;;;;;9.88;66.03;96423.97;5092953;28;20378;-66
2021/01/22 02:15:49;;;;;;;5.85;1.98;;;;;;;9.84;66.86;96418.38;5092635;28;20044;-66
2021/01/22 02:18:16;;;;;;;5.10;2.33;;;;;;;9.87;67.44;96415.22;5092586;28;20115;-64
2021/01/22 02:21:04;;;;;;;2.88;1.80;;;;;;;9.88;67.22;96416.84;5092790;28;20110;-64
2021/01/22 02:23:34;;;;;;;6.05;2.00;;;;;;;9.84;66.95;96412.31;5092756;28;20048;-64
2021/01/22 02:26:20;;;;;;;5.97;1.40;;;;;;;9.84;66.70;96417.59;5091259;28;20036;-64
2021/01/22 02:28:49;;;;;;;6.50;1.38;;;;;;;9.84;66.25;96423.66;5092483;28;20059;-64
2021/01/22 02:31:16;;;;;;;2.80;1.58;;;;;;;9.87;66.32;96414.44;5092581;28;20044;-64
2021/01/22 02:33:45;;;;;;;2.22;1.67;;;;;;;9.89;65.90;96421.06;5092421;28;20115;-65
2021/01/22 02:36:13;;;;;;;4.32;1.42;;;;;;;9.92;65.48;96422.44;5092071;28;20488;-65
2021/01/22 02:38:41;;;;;;;5.28;1.92;;;;;;;9.93;65.56;96414.25;5092474;28;20036;-65
2021/01/22 02:41:10;;;;;;;3.38;1.58;;;;;;;9.96;65.25;96414.78;5092486;28;20039;-65
2021/01/22 02:43:38;;;;;;;5.53;1.42;;;;;;;9.94;65.23;96425.59;5092347;28;20044;-65
2021/01/22 02:46:07;;;;;;;4.28;1.40;;;;;;;10.01;65.19;96428.84;5092071;28;20044;-65
2021/01/22 02:48:34;;;;;;;3.58;1.08;;;;;;;10.03;64.52;96442.59;5091702;28;20044;-64
2021/01/22 02:51:10;;;;;;;5.35;1.40;;;;;;;10.01;64.94;96431.50;5092324;28;20044;-64
2021/01/22 02:53:38;;;;;;;5.82;1.90;;;;;;;10.04;64.83;96431.00;5092774;28;20426;-64
2021/01/22 02:56:12;;;;;;;3.28;1.42;;;;;;;10.03;64.56;96442.59;5091895;28;20048;-64
2021/01/22 02:58:46;;;;;;;7.00;1.73;;;;;;;10.05;64.55;96427.31;5092416;28;20048;-64
2021/01/22 03:01:18;;;;;;;5.38;1.83;;;;;;;10.06;64.75;96436.03;5092237;28;20126;-64
2021/01/22 03:03:54;;;;;;;2.95;1.50;;;;;;;10.00;65.30;96434.38;5092319;28;20394;-64
2021/01/22 03:06:23;;;;;;;7.05;1.63;;;;;;;9.93;65.52;96442.50;5091852;28;20044;-64
2021/01/22 03:08:54;;;;;;;5.82;1.23;;;;;;;9.91;65.96;96420.81;5092481;28;20504;-65
2021/01/22 03:11:24;;;;;;;4.95;1.85;;;;;;;9.91;66.40;96439.28;5092206;28;20494;-65
2021/01/22 03:13:53;;;;;;;2.50;1.30;;;;;;;9.88;65.98;96434.53;5092149;28;20125;-64
2021/01/22 03:16:21;;;;;;;8.07;1.80;;;;;;;9.90;66.18;96441.13;5091933;28;20044;-64
2021/01/22 03:18:58;;;;;;;7.88;2.47;;;;;;;9.95;65.65;96445.66;5092152;28;20561;-64
2021/01/22 03:21:25;;;;;;;5.97;1.67;;;;;;;9.93;66.17;96459.13;5092139;28;20036;-64
2021/01/22 03:23:52;;;;;;;8.00;2.10;;;;;;;9.92;65.77;96444.34;5091927;28;20397;-64
2021/01/22 03:26:19;;;;;;;5.82;1.70;;;;;;;9.87;66.42;96449.53;5090425;28;20490;-64
2021/01/22 03:28:46;;;;;;;3.25;1.90;;;;;;;9.78;66.72;96451.00;5090532;28;20435;-64
2021/01/22 03:31:13;;;;;;;5.43;1.80;;;;;;;9.77;67.02;96457.34;5092003;28;20048;-64
2021/01/22 03:33:40;;;;;;;7.22;1.55;;;;;;;9.78;67.92;96453.63;5091937;28;20461;-66
2021/01/22 03:36:08;;;;;;;5.85;2.22;;;;;;;9.78;67.87;96453.63;5091522;28;20075;-65
2021/01/22 03:38:35;;;;;;;2.25;1.45;;;;;;;9.77;67.69;96449.41;5091902;28;20371;-64
2021/01/22 03:41:02;;;;;;;3.42;1.55;;;;;;;9.78;67.36;96439.66;5091828;28;20044;-64
2021/01/22 03:43:29;;;;;;;6.75;1.85;;;;;;;9.76;67.43;96445.19;5091714;28;20051;-64
2021/01/22 03:45:55;;;;;;;5.68;1.85;;;;;;;9.71;67.39;96429.28;5091456;28;20040;-64
2021/01/22 03:48:22;;;;;;;6.63;2.10;;;;;;;9.71;67.96;96449.59;5091728;28;20472;-64
2021/01/22 03:50:50;;;;;;;5.25;1.70;;;;;;;9.66;68.16;96427.38;5090632;28;20055;-64
2021/01/22 03:53:17;;;;;;;2.88;1.40;;;;;;;9.61;68.36;96445.78;5090910;28;20402;-64
2021/01/22 03:55:52;;;;;;;6.97;1.83;;;;;;;9.64;68.15;96450.56;5092165;28;20328;-65
2021/01/22 03:58:19;;;;;;;4.88;1.35;;;;;;;9.67;68.14;96451.91;5091933;28;20560;-65
2021/01/22 04:00:46;;;;;;;4.43;2.00;;;;;;;9.67;68.34;96451.91;5093939;28;20081;-64
2021/01/22 04:03:13;;;;;;;4.28;1.90;;;;;;;9.65;68.56;96464.56;5096879;28;20043;-65
2021/01/22 04:05:39;;;;;;;5.28;1.40;;;;;;;9.60;69.05;96451.31;5096658;28;20105;-64
2021/01/22 04:08:07;;;;;;;4.22;1.17;;;;;;;9.50;69.63;96453.78;5095889;28;20044;-64
2021/01/22 04:10:34;;;;;;;5.43;1.52;;;;;;;9.43;70.00;96449.50;5095414;28;20123;-65
2021/01/22 04:13:02;;;;;;;4.20;1.55;;;;;;;9.38;70.66;96459.94;5095211;28;20044;-65
2021/01/22 04:15:28;;;;;;;10.13;1.88;;;;;;;9.33;71.36;96454.63;5094965;28;20040;-65
2021/01/22 04:17:55;;;;;;;6.53;1.80;;;;;;;9.35;71.47;96460.47;5095166;28;20047;-65
2021/01/22 04:20:22;;;;;;;3.75;2.25;;;;;;;9.31;71.64;96455.91;5095118;28;20051;-65
2021/01/22 04:22:49;;;;;;;5.50;2.20;;;;;;;9.27;72.01;96449.53;5095194;28;20490;-65
2021/01/22 04:25:18;;;;;;;6.38;1.48;;;;;;;9.24;71.86;96445.53;5095067;28;20401;-65
2021/01/22 04:27:45;;;;;;;2.85;1.50;;;;;;;9.17;72.63;96439.59;5094889;28;20405;-65
2021/01/22 04:30:13;;;;;;;4.63;2.17;;;;;;;9.15;72.46;96447.78;5094993;28;20043;-65
2021/01/22 04:32:40;;;;;;;5.05;1.40;;;;;;;9.14;72.50;96435.63;5095004;28;20065;-64
2021/01/22 04:35:12;;;;;;;6.75;2.15;;;;;;;9.14;72.96;96429.53;5094648;28;20084;-64
2021/01/22 04:37:40;;;;;;;4.53;1.63;;;;;;;9.13;72.91;96439.28;5094833;28;20044;-64
2021/01/22 04:40:09;;;;;;;5.72;1.40;;;;;;;9.15;72.61;96433.78;5094715;28;20044;-65
2021/01/22 04:42:40;;;;;;;4.45;1.38;;;;;;;9.11;73.26;96422.94;5094679;28;20044;-65
2021/01/22 04:45:08;;;;;;;4.35;1.30;;;;;;;9.16;72.73;96424.84;5093210;28;20047;-65
2021/01/22 04:47:37;;;;;;;2.47;1.20;;;;;;;9.16;72.95;96430.13;5094429;28;20044;-65
2021/01/22 04:50:05;;;;;;;4.65;1.50;;;;;;;9.17;72.68;96426.44;5094517;28;20131;-66
2021/01/22 04:52:35;;;;;;;5.57;1.30;;;;;;;9.17;72.62;96418.53;5094511;28;20460;-65
2021/01/22 04:55:04;;;;;;;4.28;1.40;;;;;;;9.14;72.64;96413.72;5094251;28;20425;-64
2021/01/22 04:57:32;;;;;;;4.68;1.52;;;;;;;9.07;72.70;96424.44;5094448;28;20044;-65
2021/01/22 05:00:03;;;;;;;7.50;1.75;;;;;;;9.06;72.90;96419.41;5094213;28;20040;-64
2021/01/22 05:02:30;;;;;;;4.07;1.25;;;;;;;9.07;72.60;96413.91;5094372;28;20051;-65
2021/01/22 05:04:57;;;;;;;5.18;1.80;;;;;;;9.07;72.85;96416.53;5094083;28;20573;-65
2021/01/22 05:07:24;;;;;;;3.13;1.50;;;;;;;9.05;72.98;96418.59;5094133;28;20044;-65
2021/01/22 05:09:51;;;;;;;2.50;1.27;;;;;;;9.06;72.77;96407.06;5094181;28;20040;-66
2021/01/22 05:12:18;;;;;;;4.88;1.58;;;;;;;9.04;73.01;96408.31;5093668;28;20055;-66
2021/01/22 05:14:44;;;;;;;3.85;1.27;;;;;;;9.05;73.08;96410.69;5093866;28;20047;-65
2021/01/22 05:17:13;;;;;;;4.07;1.40;;;;;;;9.06;72.93;96408.88;5094016;28;20480;-65
2021/01/22 05:19:42;;;;;;;4.40;1.42;;;;;;;9.09;73.00;96405.75;5093890;28;20048;-65
2021/01/22 05:22:13;;;;;;;5.60;1.52;;;;;;;9.12;72.67;96405.28;5093975;28;20051;-65
2021/01/22 05:24:40;;;;;;;2.67;1.30;;;;;;;9.11;72.62;96396.56;5093693;28;20050;-65
2021/01/22 05:27:08;;;;;;;2.05;1.20;;;;;;;9.11;72.43;96403.69;5093768;28;20071;-65
2021/01/22 05:29:37;;;;;;;4.82;1.40;;;;;;;9.11;72.70;96398.41;5092437;28;20508;-65
2021/01/22 05:32:25;;;;;;;4.85;1.50;;;;;;;9.08;72.90;96394.41;5093760;28;20071;-65
2021/01/22 05:34:53;;;;;;;3.95;1.27;;;;;;;9.09;72.82;96395.22;5093482;28;20087;-66
2021/01/22 05:37:20;;;;;;;5.55;1.40;;;;;;;9.07;73.23;96389.41;5093573;28;20044;-66
2021/01/22 05:40:10;;;;;;;4.75;1.27;;;;;;;9.04;73.59;96390.66;5093617;28;20105;-66
2021/01/22 05:42:51;;;;;;;2.92;1.35;;;;;;;9.04;73.48;96388.03;5093467;28;20078;-66
2021/01/22 05:45:35;;;;;;;2.53;1.10;;;;;;;9.01;73.57;96400.88;5092050;28;20047;-66
2021/01/22 05:48:04;;;;;;;5.97;1.17;;;;;;;8.98;73.77;96381.09;5093529;28;20134;-66
2021/01/22 05:50:44;;;;;;;2.78;1.02;;;;;;;8.96;74.00;96374.47;5093297;28;20040;-66
2021/01/22 05:53:12;;;;;;;4.57;1.15;;;;;;;8.95;74.10;96383.41;5092102;28;20056;-66
2021/01/22 05:55:38;;;;;;;3.40;1.35;;;;;;;8.90;73.93;96392.84;5093359;28;20044;-66
2021/01/22 05:58:05;;;;;;;3.65;1.45;;;;;;;8.92;74.10;96396.03;5093347;28;20060;-67
2021/01/22 06:00:32;;;;;;;2.65;1.38;;;;;;;8.93;74.07;96381.00;5093309;28;20051;-67
2021/01/22 06:03:00;;;;;;;2.15;1.17;;;;;;;8.92;74.28;96380.22;5093521;28;20042;-67
2021/01/22 06:05:27;;;;;;;3.17;1.40;;;;;;;8.90;74.31;96384.94;5092968;28;20040;-67
2021/01/22 06:08:08;;;;;;;3.92;1.27;;;;;;;8.87;74.63;96393.31;5093071;28;20052;-65
2021/01/22 06:10:39;;;;;;;2.40;1.35;;;;;;;8.89;74.93;96390.44;5093420;28;20043;-67
2021/01/22 06:13:09;;;;;;;4.85;1.27;;;;;;;8.88;74.98;96410.72;5093237;28;20529;-67
2021/01/22 06:15:36;;;;;;;4.20;1.20;;;;;;;8.82;75.25;96395.09;5092688;28;20044;-67
2021/01/22 06:18:05;;;;;;;3.35;1.20;;;;;;;8.83;74.65;96394.03;5092869;28;20109;-67
2021/01/22 06:20:40;;;;;;;4.22;1.42;;;;;;;8.86;74.68;96397.00;5093056;28;20059;-67
2021/01/22 06:23:11;;;;;;;6.55;1.48;;;;;;;8.84;74.49;96391.16;5092417;28;20050;-67
2021/01/22 06:25:38;;;;;;;4.78;1.58;;;;;;;8.82;74.65;96395.88;5092181;28;20032;-67
2021/01/22 06:28:06;;;;;;;2.42;1.25;;;;;;;8.84;74.71;96400.91;5092658;28;20497;-67
2021/01/22 06:30:35;;;;;;;7.80;1.88;;;;;;;8.84;74.99;96393.78;5091371;28;20047;-67
2021/01/22 06:33:04;;;;;;;3.78;1.33;;;;;;;8.85;75.06;96391.94;5092632;28;20490;-67
2021/01/22 06:35:37;;;;;;;5.93;1.48;;;;;;;8.80;75.11;96402.41;5092528;28;20066;-67
2021/01/22 06:38:06;;;;;;;6.85;1.65;;;;;;;8.76;75.82;96388.91;5092585;28;20494;-67
2021/01/22 06:40:33;;;;;;;6.10;1.60;;;;;;;8.74;75.80;96387.59;5092616;28;20444;-67
2021/01/22 06:43:01;;;;;;;4.88;1.50;;;;;;;8.61;76.50;96397.41;5092560;28;20498;-67
2021/01/22 06:45:28;;;;;;;6.13;1.38;;;;;;;8.61;77.01;96399.19;5092167;28;20080;-67
2021/01/22 06:48:01;;;;;;;3.90;1.60;;;;;;;8.66;77.32;96402.75;5092388;28;20081;-67
2021/01/22 06:50:29;;;;;;;6.13;1.58;;;;;;;8.65;76.99;96395.06;5091112;28;20051;-66
2021/01/22 06:53:20;;;;;;;3.67;1.65;;;;;;;8.66;76.96;96409.84;5092633;28;20084;-66
2021/01/22 06:56:14;;;;;;;7.07;1.70;;;;;;;8.72;76.86;96405.44;5077522;28;20051;-66
2021/01/22 06:58:41;;;;;;;6.80;2.05;;;;;;;8.74;77.00;96408.66;5093782;28;20044;-66
2021/01/22 07:01:32;;;;;;;4.65;1.67;;;;;;;8.78;76.60;96412.41;5092858;28;20110;-66
2021/01/22 07:03:59;;;;;;;7.13;1.98;;;;;;;8.75;76.80;96415.50;5092454;28;20086;-66
2021/01/22 07:06:51;;;;;;;4.68;1.92;;;;;;;8.75;76.36;96418.94;5092225;28;20055;-65
2021/01/22 07:09:20;;;;;;;6.32;1.83;;;;;;;8.75;76.63;96415.50;5092299;28;20047;-66
2021/01/22 07:11:57;;;;;;;6.40;1.88;;;;;;;8.73;76.37;96415.72;5092359;28;20050;-66
2021/01/22 07:14:35;;;;;;;7.88;1.90;;;;;;;8.72;76.78;96419.41;5091900;28;20059;-67
2021/01/22 07:17:04;;;;;;;4.63;1.88;;;;;;;8.68;77.30;96428.81;5092110;28;20048;-67
2021/01/22 07:19:32;;;;;;;5.22;2.08;;;;;;;8.71;77.65;96427.56;5092053;28;20044;-66
2021/01/22 07:22:00;;;;;;;9.20;1.90;;;;;;;8.71;77.28;96431.00;5092003;28;20490;-67
2021/01/22 07:24:27;;;;;;;8.63;2.00;;;;;;;8.74;77.24;96429.72;5091759;28;20445;-67
2021/01/22 07:26:54;;;;;;;5.25;2.03;;;;;;;8.70;77.28;96442.56;5091956;28;20105;-67
2021/01/22 07:29:26;;;;;;;7.68;1.75;;;;;;;8.74;77.46;96435.00;5090820;28;20147;-66
2021/01/22 07:31:57;;;;;;;3.88;2.00;;;;;;;8.75;77.84;96434.75;5092023;28;20048;-67
2021/01/22 07:34:50;;;;;;;7.45;1.90;;;;;;;8.79;77.78;96433.22;5090656;28;20513;-67
2021/01/22 07:37:20;;;;;;;6.30;1.98;;;;;;;8.82;77.85;96434.59;5094862;28;20142;-67
2021/01/22 07:39:48;;;;;;;10.25;2.35;;;;;;;8.87;77.43;96430.19;5096164;28;20039;-67
2021/01/22 07:42:16;;;;;;;4.63;1.95;;;;;;;8.90;77.33;96434.22;5095973;28;20068;-67
2021/01/22 07:44:45;;;;;;;14.15;2.60;;;;;;;8.91;77.13;96433.16;5096170;28;20036;-67
2021/01/22 07:47:24;;;;;;;8.77;2.10;;;;;;;8.84;77.43;96435.94;5096150;28;20408;-67
2021/01/22 07:49:56;;;;;;;9.73;1.92;;;;;;;8.85;77.67;96432.25;5096635;28;20044;-67
2021/01/22 07:52:23;;;;;;;7.50;2.03;;;;;;;8.83;77.79;96444.88;5097653;28;20047;-67
2021/01/22 07:54:51;;;;;;;8.15;2.65;;;;;;;8.82;77.54;96445.94;5097672;28;20044;-67
2021/01/22 07:57:20;;;;;;;6.75;2.20;;;;;;;8.82;77.56;96447.78;5096175;28;20054;-67
2021/01/22 07:59:48;;;;;;;5.80;1.70;;;;;;;8.87;77.39;96451.28;5096472;28;20044;-67
2021/01/22 08:02:17;;;;;;;8.95;2.22;;;;;;;8.92;77.05;96453.19;5096066;28;20044;-67
2021/01/22 08:04:46;;;;;;;5.93;2.10;;;;;;;8.95;76.87;96451.94;5095614;28;20047;-67
2021/01/22 08:07:16;;;;;;;9.32;2.58;;;;;;;8.97;76.95;96455.09;5094528;28;20051;-67
2021/01/22 08:09:53;;;;;;;4.60;2.30;;;;;;;8.97;76.94;96465.66;5095535;28;20044;-67
2021/01/22 08:12:20;;;;;;;7.45;2.20;;;;;;;8.96;76.76;96471.97;5095632;28;20054;-67
2021/01/22 08:14:46;;;;;;;7.75;2.58;;;;;;;9.00;76.49;96484.41;5095290;28;20040;-67
2021/01/22 08:17:14;;;;;;;9.57;2.50;;;;;;;8.95;76.68;96486.97;5095450;28;20048;-67
2021/01/22 08:19:41;;;;;;;3.20;1.23;;;;;;;8.62;75.19;96485.88;5095280;28;20064;-66
2021/01/22 08:22:15;;;;;;;1.70;0.80;;;;;;;8.25;75.61;96489.91;5095350;28;20128;-66
2021/01/22 08:24:46;;;;;;;1.00;0.85;;;;;;;7.98;75.61;96481.72;5094984;28;20059;-66
2021/01/22 08:27:14;;;;;;;1.10;0.60;;;;;;;7.47;75.61;96496.41;5095120;28;20108;-66
2021/01/22 08:29:43;;;;;;;2.28;0.65;;;;;;;7.33;76.14;96520.31;5095142;28;20047;-66
2021/01/22 08:32:12;;;;;;;0.52;0.50;;;;;;;7.05;75.96;96515.69;5094386;28;20386;-67
2021/01/22 08:34:39;;;;;;;0.93;0.70;;;;;;;6.93;76.02;96543.75;5095879;28;20040;-66
2021/01/22 08:37:08;;;;;;;0.32;0.32;;;;;;;6.77;75.79;96531.25;5096336;28;20089;-67
2021/01/22 08:39:55;;;;;;;1.17;0.60;;;;;;;6.63;75.78;96543.78;5103721;28;20047;-67
2021/01/22 08:42:23;;;;;;;0.85;0.55;;;;;;;6.52;75.10;96550.56;5099081;28;20048;-67
2021/01/22 08:44:51;;;;;;;0.50;0.50;;;;;;;6.41;75.42;96541.63;5095252;28;20493;-68
2021/01/22 08:47:18;;;;;;;0.57;0.57;;;;;;;6.33;75.89;96557.69;5094032;28;20035;-67
2021/01/22 08:49:52;;;;;;;1.60;0.80;;;;;;;6.31;75.82;96551.03;5094960;28;20417;-67
2021/01/22 08:52:19;;;;;;;2.90;0.65;;;;;;;6.33;76.16;96560.31;5095229;28;20419;-66
2021/01/22 08:54:49;;;;;;;0.47;0.47;;;;;;;6.17;75.86;96566.94;5095775;28;20473;-67
2021/01/22 08:57:16;;;;;;;0.47;0.47;;;;;;;6.09;75.84;96566.44;5096104;28;20127;-68
2021/01/22 08:59:48;;;;;;;0.40;0.40;;;;;;;5.98;76.45;96572.41;5094801;28;20101;-66
2021/01/22 09:02:15;;;;;;;0.40;0.40;;;;;;;5.90;76.33;96576.06;5094998;28;20114;-68
2021/01/22 09:04:42;;;;;;;0.60;0.57;;;;;;;5.86;76.85;96582.78;5094200;28;20456;-67
2021/01/22 09:07:17;;;;;;;0.63;0.63;;;;;;;5.91;76.28;96601.28;5094866;28;20060;-67
2021/01/22 09:09:46;;;;;;;;;;;;;;;5.78;76.25;96601.41;5095086;28;20048;-67
2021/01/22 09:12:15;;;;;;;1.33;0.57;;;;;;;5.83;76.07;96610.22;5094403;28;19924;-68
2021/01/22 09:15:08;;;;;;;1.65;0.70;;;;;;;5.75;75.82;96628.84;5093992;28;20051;-67
2021/01/22 09:17:41;;;;;;;0.75;0.50;;;;;;;5.68;75.82;96628.13;5094058;28;20124;-68
2021/01/22 09:20:14;;;;;;;1.58;0.57;;;;;;;5.57;75.54;96637.47;5094054;28;20379;-67
2021/01/22 09:22:42;;;;;;;2.53;0.73;;;;;;;5.67;76.46;96650.91;5094101;28;20498;-67
2021/01/22 09:25:11;;;;;;;0.55;0.55;;;;;;;5.78;75.72;96664.31;5092604;28;20046;-67
2021/01/22 09:27:39;;;;;;;0.55;0.47;;;;;;;5.69;75.05;96672.47;5093810;28;20048;-67
2021/01/22 09:30:10;;;;;;;1.42;0.70;;;;;;;5.55;75.78;96680.63;5094053;28;20093;-68
2021/01/22 09:32:37;;;;;;;0.43;0.43;;;;;;;5.61;74.69;96683.22;5094079;28;20046;-67
2021/01/22 09:35:05;;;;;;;0.40;0.40;;;;;;;5.25;74.45;96688.28;5093719;28;20046;-67
2021/01/22 09:37:32;;;;;;;0.50;0.40;;;;;;;5.28;75.22;96693.09;5093935;28;20047;-67
2021/01/22 09:39:58;;;;;;;0.40;0.40;;;;;;;5.43;74.72;96701.47;5093699;28;20087;-66
2021/01/22 09:42:25;;;;;;;1.25;0.40;;;;;;;5.45;74.42;96709.91;5093602;28;20044;-66
2021/01/22 09:44:52;;;;;;;0.60;0.50;;;;;;;5.59;73.25;96718.50;5091878;28;20055;-65
2021/01/22 09:47:20;;;;;;;0.55;0.35;;;;;;;5.06;72.04;96724.84;5093530;28;20058;-65
2021/01/22 09:49:47;;;;;;;0.65;0.50;;;;;;;4.75;73.00;96730.78;5093547;28;20042;-66
2021/01/22 09:52:14;;;;;;;0.40;0.40;;;;;;;4.59;73.59;96731.25;5093470;28;20402;-66
2021/01/22 09:54:42;;;;;;;1.35;0.40;;;;;;;4.68;73.60;96737.84;5093200;28;20040;-66
2021/01/22 09:57:08;;;;;;;0.50;0.47;;;;;;;4.59;73.39;96739.88;5093297;28;20087;-66
2021/01/22 09:59:35;;;;;;;1.15;0.50;;;;;;;4.52;74.33;96761.84;5092969;28;20067;-66
2021/01/22 10:02:03;;;;;;;0.55;0.55;;;;;;;4.45;73.92;96756.63;5093297;28;20044;-66
2021/01/22 10:04:31;;;;;;;0.50;0.50;;;;;;;4.62;74.04;96749.94;5093080;28;20120;-67
2021/01/22 10:06:58;;;;;;;1.13;0.50;;;;;;;4.70;73.74;96749.72;5093574;28;20051;-66
2021/01/22 10:09:25;;;;;;;0.38;0.38;;;;;;;4.61;73.57;96748.34;5091803;28;20082;-66
2021/01/22 10:11:52;;;;;;;1.50;0.65;;;;;;;4.47;73.87;96763.25;5093248;28;20119;-66
2021/01/22 10:14:18;;;;;;;1.17;0.60;;;;;;;4.54;73.92;96757.22;5092784;28;20428;-66
2021/01/22 10:16:45;;;;;;;1.00;0.60;;;;;;;4.58;73.88;96755.81;5093101;28;20051;-66
2021/01/22 10:19:12;;;;;;;0.82;0.60;;;;;;;4.72;74.02;96757.38;5093165;28;20036;-65
2021/01/22 10:21:39;;;;;;;1.05;0.60;;;;;;;4.86;74.08;96763.38;5093174;28;20044;-65
2021/01/22 10:24:07;;;;;;;1.75;0.80;;;;;;;5.02;74.19;96756.88;5093190;28;20055;-66
2021/01/22 10:26:34;;;;;;;0.88;0.70;;;;;;;5.14;74.12;96758.66;5093033;28;20052;-65
2021/01/22 10:29:00;;;;;;;1.90;0.75;;;;;;;5.20;74.20;96760.44;5093272;28;20058;-65
2021/01/22 10:31:27;;;;;;;0.60;0.60;;;;;;;5.21;73.58;96764.66;5093438;28;20048;-66
2021/01/22 10:33:54;;;;;;;1.95;0.80;;;;;;;5.30;73.13;96767.03;5093532;28;20048;-66
2021/01/22 10:36:21;;;;;;;1.50;1.02;;;;;;;5.51;73.51;96764.13;5093210;28;20131;-65
2021/01/22 10:38:48;;;;;;;0.80;0.80;;;;;;;5.61;72.36;96767.09;5093624;28;20051;-66
2021/01/22 10:41:15;;;;;;;0.60;0.60;;;;;;;5.40;71.44;96767.41;5093033;28;20048;-65
2021/01/22 10:43:42;;;;;;;1.20;0.60;;;;;;;5.33;72.23;96767.44;5093176;28;20051;-66
2021/01/22 10:46:08;;;;;;;1.13;0.50;;;;;;;5.07;72.62;96762.31;5092830;28;20429;-65
2021/01/22 10:48:35;;;;;;;1.73;0.60;;;;;;;5.19;72.52;96764.06;5092902;28;20118;-65
2021/01/22 10:51:02;;;;;;;1.50;0.60;;;;;;;5.29;72.77;96763.63;5092536;28;20509;-66
2021/01/22 10:53:29;;;;;;;0.90;0.60;;;;;;;5.34;72.56;96766.41;5093035;28;20043;-66
2021/01/22 10:55:57;;;;;;;0.40;0.40;;;;;;;5.49;72.18;96763.53;5092755;28;20505;-65
2021/01/22 10:58:23;;;;;;;1.35;0.82;;;;;;;5.37;72.00;96767.81;5092517;28;20048;-65
2021/01/22 11:00:50;;;;;;;1.45;0.75;;;;;;;5.33;72.71;96787.59;5092406;28;20050;-65
2021/01/22 11:03:16;;;;;;;1.05;1.02;;;;;;;5.36;72.56;96792.41;5092339;28;20374;-66
2021/01/22 11:05:43;;;;;;;0.73;0.70;;;;;;;5.54;71.57;96763.69;5092218;28;20517;-66
2021/01/22 11:08:10;;;;;;;2.92;0.70;;;;;;;5.07;71.18;96765.72;5092220;28;20040;-65
2021/01/22 11:10:37;;;;;;;0.60;0.60;;;;;;;5.03;72.46;96792.53;5091566;28;20036;-65
2021/01/22 11:13:04;;;;;;;1.25;0.77;;;;;;;5.24;73.27;96794.88;5092174;28;20036;-65
2021/01/22 11:15:33;;;;;;;0.68;0.60;;;;;;;5.44;72.61;96779.88;5091953;28;20055;-66
2021/01/22 11:18:00;;;;;;;0.52;0.50;;;;;;;5.32;71.93;96785.97;5091974;28;20052;-65
2021/01/22 11:20:27;;;;;;;0.60;0.50;;;;;;;5.37;72.70;96802.69;5090836;28;20136;-65
2021/01/22 11:22:54;;;;;;;0.50;0.50;;;;;;;5.43;72.61;96801.84;5092082;28;20040;-65
2021/01/22 11:25:21;;;;;;;1.10;0.68;;;;;;;5.57;72.63;96805.22;5092039;28;20047;-65
2021/01/22 11:27:49;;;;;;;1.55;1.30;;;;;;;5.58;72.12;96806.00;5092257;28;20044;-65
2021/01/22 11:30:17;;;;;;;0.95;0.80;;;;;;;5.52;72.75;96814.72;5092077;28;20044;-65
2021/01/22 11:32:44;;;;;;;7.90;4.63;;;;;;;5.61;72.18;96813.47;5092137;28;20047;-65
2021/01/22 11:35:12;;;;;;;3.60;2.67;;;;;;;5.64;72.11;96806.00;5091993;28;20048;-65
2021/01/22 11:37:44;;;;;;;1.88;1.30;;;;;;;5.75;71.95;96811.56;5092086;28;20036;-65
2021/01/22 11:40:12;;;;;;;2.83;0.77;;;;;;;5.81;71.43;96811.53;5092052;28;20040;-65
2021/01/22 11:42:39;;;;;;;0.70;0.68;;;;;;;5.52;71.17;96810.28;5091840;28;20040;-65
2021/01/22 11:45:07;;;;;;;0.88;0.60;;;;;;;5.56;71.77;96814.09;5091573;28;20036;-65
2021/01/22 11:47:34;;;;;;;3.40;2.55;;;;;;;5.67;71.98;96816.06;5091931;28;20063;-66
2021/01/22 11:50:02;;;;;;;4.10;1.67;;;;;;;5.68;71.89;96812.41;5091623;28;20044;-65
2021/01/22 11:52:29;;;;;;;7.60;5.93;;;;;;;5.45;71.24;96812.94;5092108;28;20051;-65